sensor_id;sensor_type;location;lat;lon;timestamp;P1;durP1;ratioP1;P2;durP2;ratioP2
26612;SDS011;14248;57.652;11.908;2023-05-19T00:04:17;2.65;;;1.38;;
26612;SDS011;14248;57.652;11.908;2023-05-19T00:06:59;1.60;;;1.10;;
26612;SDS011;14248;57.652;11.908;2023-05-19T00:09:32;1.67;;;1.02;;
26612;SDS011;14248;57.652;11.908;2023-05-19T00:14:47;3.67;;;1.08;;
26612;SDS011;14248;57.652;11.908;2023-05-19T00:20:02;1.65;;;1.00;;
26612;SDS011;14248;57.652;11.908;2023-05-19T00:22:33;2.35;;;0.90;;
26612;SDS011;14248;57.652;11.908;2023-05-19T00:27:49;1.17;;;1.00;;
26612;SDS011;14248;57.652;11.908;2023-05-19T00:30:28;3.13;;;1.40;;
26612;SDS011;14248;57.652;11.908;2023-05-19T00:32:56;2.42;;;1.40;;
26612;SDS011;14248;57.652;11.908;2023-05-19T00:38:15;3.45;;;1.20;;
26612;SDS011;14248;57.652;11.908;2023-05-19T00:40:47;2.95;;;1.30;;
26612;SDS011;14248;57.652;11.908;2023-05-19T00:43:26;1.30;;;1.05;;
26612;SDS011;14248;57.652;11.908;2023-05-19T00:48:50;2.30;;;1.27;;
26612;SDS011;14248;57.652;11.908;2023-05-19T00:51:27;3.05;;;1.30;;
26612;SDS011;14248;57.652;11.908;2023-05-19T00:53:55;2.17;;;1.30;;
26612;SDS011;14248;57.652;11.908;2023-05-19T00:56:29;2.13;;;1.30;;
26612;SDS011;14248;57.652;11.908;2023-05-19T00:59:01;4.18;;;1.20;;
26612;SDS011;14248;57.652;11.908;2023-05-19T01:01:27;1.42;;;1.13;;
26612;SDS011;14248;57.652;11.908;2023-05-19T01:03:53;1.08;;;0.98;;
26612;SDS011;14248;57.652;11.908;2023-05-19T01:06:24;1.48;;;0.93;;
26612;SDS011;14248;57.652;11.908;2023-05-19T01:08:56;2.03;;;1.27;;
26612;SDS011;14248;57.652;11.908;2023-05-19T01:16:46;2.03;;;1.30;;
26612;SDS011;14248;57.652;11.908;2023-05-19T01:25:33;2.08;;;1.05;;
26612;SDS011;14248;57.652;11.908;2023-05-19T01:31:07;1.77;;;1.00;;
26612;SDS011;14248;57.652;11.908;2023-05-19T01:33:47;1.45;;;1.10;;
26612;SDS011;14248;57.652;11.908;2023-05-19T01:36:19;1.48;;;1.05;;
26612;SDS011;14248;57.652;11.908;2023-05-19T01:44:11;1.90;;;1.23;;
26612;SDS011;14248;57.652;11.908;2023-05-19T01:46:40;2.17;;;1.23;;
26612;SDS011;14248;57.652;11.908;2023-05-19T01:51:39;1.77;;;1.20;;
26612;SDS011;14248;57.652;11.908;2023-05-19T01:56:46;1.52;;;1.23;;
26612;SDS011;14248;57.652;11.908;2023-05-19T02:12:39;1.60;;;1.05;;
26612;SDS011;14248;57.652;11.908;2023-05-19T02:15:17;2.30;;;1.15;;
26612;SDS011;14248;57.652;11.908;2023-05-19T02:17:44;1.15;;;0.98;;
26612;SDS011;14248;57.652;11.908;2023-05-19T02:20:30;1.95;;;1.30;;
26612;SDS011;14248;57.652;11.908;2023-05-19T02:23:04;1.95;;;0.98;;
26612;SDS011;14248;57.652;11.908;2023-05-19T02:30:43;2.05;;;1.35;;
26612;SDS011;14248;57.652;11.908;2023-05-19T02:35:55;2.00;;;1.15;;
26612;SDS011;14248;57.652;11.908;2023-05-19T02:38:21;1.30;;;1.20;;
26612;SDS011;14248;57.652;11.908;2023-05-19T02:40:50;1.80;;;1.02;;
26612;SDS011;14248;57.652;11.908;2023-05-19T02:46:01;3.40;;;1.10;;
26612;SDS011;14248;57.652;11.908;2023-05-19T02:48:33;2.05;;;1.00;;
26612;SDS011;14248;57.652;11.908;2023-05-19T02:51:05;0.93;;;0.88;;
26612;SDS011;14248;57.652;11.908;2023-05-19T02:53:31;1.77;;;1.10;;
26612;SDS011;14248;57.652;11.908;2023-05-19T02:58:44;2.45;;;1.17;;
26612;SDS011;14248;57.652;11.908;2023-05-19T03:01:18;1.27;;;1.17;;
26612;SDS011;14248;57.652;11.908;2023-05-19T03:04:02;1.67;;;0.90;;
26612;SDS011;14248;57.652;11.908;2023-05-19T03:06:34;1.35;;;1.00;;
26612;SDS011;14248;57.652;11.908;2023-05-19T03:09:04;1.25;;;1.15;;
26612;SDS011;14248;57.652;11.908;2023-05-19T03:11:30;1.45;;;0.80;;
26612;SDS011;14248;57.652;11.908;2023-05-19T03:14:00;1.10;;;0.90;;
26612;SDS011;14248;57.652;11.908;2023-05-19T03:16:31;1.55;;;0.90;;
26612;SDS011;14248;57.652;11.908;2023-05-19T03:19:04;1.63;;;1.00;;
26612;SDS011;14248;57.652;11.908;2023-05-19T03:24:04;2.20;;;1.02;;
26612;SDS011;14248;57.652;11.908;2023-05-19T03:26:38;1.30;;;1.00;;
26612;SDS011;14248;57.652;11.908;2023-05-19T03:29:16;1.40;;;0.90;;
26612;SDS011;14248;57.652;11.908;2023-05-19T03:31:44;1.88;;;0.93;;
26612;SDS011;14248;57.652;11.908;2023-05-19T03:34:16;1.85;;;1.00;;
26612;SDS011;14248;57.652;11.908;2023-05-19T03:36:56;1.30;;;0.98;;
26612;SDS011;14248;57.652;11.908;2023-05-19T03:39:29;1.48;;;0.98;;
26612;SDS011;14248;57.652;11.908;2023-05-19T03:42:08;3.13;;;1.30;;
26612;SDS011;14248;57.652;11.908;2023-05-19T03:44:34;1.17;;;0.90;;
26612;SDS011;14248;57.652;11.908;2023-05-19T03:47:16;2.03;;;0.98;;
26612;SDS011;14248;57.652;11.908;2023-05-19T03:49:49;0.77;;;0.77;;
26612;SDS011;14248;57.652;11.908;2023-05-19T03:52:15;1.55;;;0.93;;
26612;SDS011;14248;57.652;11.908;2023-05-19T03:54:49;1.30;;;0.90;;
26612;SDS011;14248;57.652;11.908;2023-05-19T04:00:10;1.08;;;0.82;;
26612;SDS011;14248;57.652;11.908;2023-05-19T04:05:23;1.67;;;0.95;;
26612;SDS011;14248;57.652;11.908;2023-05-19T04:07:50;1.05;;;0.90;;
26612;SDS011;14248;57.652;11.908;2023-05-19T04:15:36;1.55;;;0.98;;
26612;SDS011;14248;57.652;11.908;2023-05-19T04:18:03;1.30;;;0.85;;
26612;SDS011;14248;57.652;11.908;2023-05-19T04:23:33;1.42;;;1.30;;
26612;SDS011;14248;57.652;11.908;2023-05-19T04:25:59;1.13;;;1.00;;
26612;SDS011;14248;57.652;11.908;2023-05-19T04:28:37;1.52;;;1.10;;
26612;SDS011;14248;57.652;11.908;2023-05-19T04:31:07;1.92;;;1.20;;
26612;SDS011;14248;57.652;11.908;2023-05-19T04:33:36;1.00;;;0.90;;
26612;SDS011;14248;57.652;11.908;2023-05-19T04:36:02;1.13;;;0.70;;
26612;SDS011;14248;57.652;11.908;2023-05-19T04:38:38;1.27;;;0.85;;
26612;SDS011;14248;57.652;11.908;2023-05-19T04:41:08;1.05;;;0.60;;
26612;SDS011;14248;57.652;11.908;2023-05-19T04:43:47;1.30;;;0.80;;
26612;SDS011;14248;57.652;11.908;2023-05-19T04:46:26;1.02;;;0.93;;
26612;SDS011;14248;57.652;11.908;2023-05-19T04:48:58;1.08;;;0.95;;
26612;SDS011;14248;57.652;11.908;2023-05-19T04:51:26;2.00;;;1.17;;
26612;SDS011;14248;57.652;11.908;2023-05-19T04:53:55;1.55;;;1.15;;
26612;SDS011;14248;57.652;11.908;2023-05-19T04:56:23;3.00;;;1.00;;
26612;SDS011;14248;57.652;11.908;2023-05-19T05:04:05;1.55;;;1.27;;
26612;SDS011;14248;57.652;11.908;2023-05-19T05:06:31;2.20;;;1.50;;
26612;SDS011;14248;57.652;11.908;2023-05-19T05:09:01;1.33;;;0.90;;
26612;SDS011;14248;57.652;11.908;2023-05-19T05:11:36;1.45;;;1.10;;
26612;SDS011;14248;57.652;11.908;2023-05-19T05:14:02;2.67;;;1.27;;
26612;SDS011;14248;57.652;11.908;2023-05-19T05:24:09;2.17;;;1.30;;
26612;SDS011;14248;57.652;11.908;2023-05-19T05:29:07;1.73;;;1.20;;
26612;SDS011;14248;57.652;11.908;2023-05-19T05:31:42;2.28;;;1.27;;
26612;SDS011;14248;57.652;11.908;2023-05-19T05:36:38;2.70;;;1.83;;
26612;SDS011;14248;57.652;11.908;2023-05-19T05:39:05;3.92;;;1.52;;
26612;SDS011;14248;57.652;11.908;2023-05-19T05:41:31;2.40;;;1.52;;
26612;SDS011;14248;57.652;11.908;2023-05-19T05:44:02;2.03;;;1.20;;
26612;SDS011;14248;57.652;11.908;2023-05-19T05:46:28;2.17;;;1.27;;
26612;SDS011;14248;57.652;11.908;2023-05-19T05:48:55;2.03;;;1.00;;
26612;SDS011;14248;57.652;11.908;2023-05-19T05:51:21;3.13;;;1.60;;
26612;SDS011;14248;57.652;11.908;2023-05-19T05:53:50;3.95;;;1.60;;
26612;SDS011;14248;57.652;11.908;2023-05-19T05:56:19;2.00;;;1.10;;
26612;SDS011;14248;57.652;11.908;2023-05-19T05:58:45;3.00;;;1.00;;
26612;SDS011;14248;57.652;11.908;2023-05-19T06:01:11;6.03;;;1.45;;
26612;SDS011;14248;57.652;11.908;2023-05-19T06:03:39;2.30;;;1.48;;
26612;SDS011;14248;57.652;11.908;2023-05-19T06:06:05;2.17;;;1.55;;
26612;SDS011;14248;57.652;11.908;2023-05-19T06:08:31;3.22;;;1.52;;
26612;SDS011;14248;57.652;11.908;2023-05-19T06:10:57;2.08;;;1.23;;
26612;SDS011;14248;57.652;11.908;2023-05-19T06:16:26;3.55;;;1.50;;
26612;SDS011;14248;57.652;11.908;2023-05-19T06:18:52;4.20;;;1.48;;
26612;SDS011;14248;57.652;11.908;2023-05-19T06:21:18;4.18;;;1.75;;
26612;SDS011;14248;57.652;11.908;2023-05-19T06:23:45;4.15;;;1.60;;
26612;SDS011;14248;57.652;11.908;2023-05-19T06:26:11;3.38;;;1.50;;
26612;SDS011;14248;57.652;11.908;2023-05-19T06:28:37;2.90;;;1.70;;
26612;SDS011;14248;57.652;11.908;2023-05-19T06:31:03;2.72;;;1.35;;
26612;SDS011;14248;57.652;11.908;2023-05-19T06:33:29;2.10;;;1.20;;
26612;SDS011;14248;57.652;11.908;2023-05-19T06:38:34;2.90;;;1.63;;
26612;SDS011;14248;57.652;11.908;2023-05-19T06:41:00;2.58;;;1.33;;
26612;SDS011;14248;57.652;11.908;2023-05-19T06:43:26;2.22;;;1.20;;
26612;SDS011;14248;57.652;11.908;2023-05-19T06:45:52;2.42;;;1.05;;
26612;SDS011;14248;57.652;11.908;2023-05-19T06:48:18;4.32;;;1.58;;
26612;SDS011;14248;57.652;11.908;2023-05-19T06:50:46;5.63;;;1.70;;
26612;SDS011;14248;57.652;11.908;2023-05-19T06:53:12;4.40;;;1.40;;
26612;SDS011;14248;57.652;11.908;2023-05-19T06:55:38;2.85;;;1.15;;
26612;SDS011;14248;57.652;11.908;2023-05-19T06:58:05;4.43;;;1.30;;
26612;SDS011;14248;57.652;11.908;2023-05-19T07:00:31;3.72;;;1.23;;
26612;SDS011;14248;57.652;11.908;2023-05-19T07:02:57;2.83;;;1.60;;
26612;SDS011;14248;57.652;11.908;2023-05-19T07:05:23;3.38;;;1.73;;
26612;SDS011;14248;57.652;11.908;2023-05-19T07:07:49;3.38;;;1.30;;
26612;SDS011;14248;57.652;11.908;2023-05-19T07:10:15;3.60;;;1.50;;
26612;SDS011;14248;57.652;11.908;2023-05-19T07:12:41;4.53;;;1.55;;
26612;SDS011;14248;57.652;11.908;2023-05-19T07:15:07;3.42;;;1.38;;
26612;SDS011;14248;57.652;11.908;2023-05-19T07:17:34;3.53;;;1.42;;
26612;SDS011;14248;57.652;11.908;2023-05-19T07:20:00;3.78;;;1.38;;
26612;SDS011;14248;57.652;11.908;2023-05-19T07:22:27;2.97;;;1.40;;
26612;SDS011;14248;57.652;11.908;2023-05-19T07:24:54;4.00;;;1.48;;
26612;SDS011;14248;57.652;11.908;2023-05-19T07:27:21;4.03;;;1.20;;
26612;SDS011;14248;57.652;11.908;2023-05-19T07:29:47;4.40;;;1.45;;
26612;SDS011;14248;57.652;11.908;2023-05-19T07:32:13;2.78;;;1.13;;
26612;SDS011;14248;57.652;11.908;2023-05-19T07:34:42;3.10;;;1.63;;
26612;SDS011;14248;57.652;11.908;2023-05-19T07:37:08;2.03;;;1.25;;
26612;SDS011;14248;57.652;11.908;2023-05-19T07:39:34;4.03;;;1.50;;
26612;SDS011;14248;57.652;11.908;2023-05-19T07:42:00;4.97;;;1.60;;
26612;SDS011;14248;57.652;11.908;2023-05-19T07:44:26;3.65;;;1.38;;
26612;SDS011;14248;57.652;11.908;2023-05-19T07:46:56;2.88;;;1.30;;
26612;SDS011;14248;57.652;11.908;2023-05-19T07:49:22;2.03;;;1.23;;
26612;SDS011;14248;57.652;11.908;2023-05-19T07:51:48;3.17;;;1.55;;
26612;SDS011;14248;57.652;11.908;2023-05-19T07:54:14;5.63;;;1.80;;
26612;SDS011;14248;57.652;11.908;2023-05-19T07:56:40;1.77;;;1.35;;
26612;SDS011;14248;57.652;11.908;2023-05-19T07:59:06;6.97;;;1.80;;
26612;SDS011;14248;57.652;11.908;2023-05-19T08:01:33;3.72;;;1.40;;
26612;SDS011;14248;57.652;11.908;2023-05-19T08:03:59;4.30;;;1.63;;
26612;SDS011;14248;57.652;11.908;2023-05-19T08:06:25;3.88;;;1.60;;
26612;SDS011;14248;57.652;11.908;2023-05-19T08:08:53;5.45;;;1.52;;
26612;SDS011;14248;57.652;11.908;2023-05-19T08:11:19;3.25;;;1.50;;
26612;SDS011;14248;57.652;11.908;2023-05-19T08:13:46;3.38;;;1.13;;
26612;SDS011;14248;57.652;11.908;2023-05-19T08:16:13;3.58;;;1.50;;
26612;SDS011;14248;57.652;11.908;2023-05-19T08:18:39;2.65;;;1.27;;
26612;SDS011;14248;57.652;11.908;2023-05-19T08:21:05;4.43;;;1.45;;
26612;SDS011;14248;57.652;11.908;2023-05-19T08:23:31;4.70;;;1.40;;
26612;SDS011;14248;57.652;11.908;2023-05-19T08:25:58;4.85;;;1.52;;
26612;SDS011;14248;57.652;11.908;2023-05-19T08:28:26;2.25;;;1.40;;
26612;SDS011;14248;57.652;11.908;2023-05-19T08:30:52;3.40;;;1.20;;
26612;SDS011;14248;57.652;11.908;2023-05-19T08:33:18;3.95;;;1.38;;
26612;SDS011;14248;57.652;11.908;2023-05-19T08:35:45;2.63;;;1.40;;
26612;SDS011;14248;57.652;11.908;2023-05-19T08:38:11;1.27;;;1.13;;
26612;SDS011;14248;57.652;11.908;2023-05-19T08:40:40;2.83;;;1.08;;
26612;SDS011;14248;57.652;11.908;2023-05-19T08:43:06;2.17;;;1.23;;
26612;SDS011;14248;57.652;11.908;2023-05-19T08:45:32;3.03;;;1.08;;
26612;SDS011;14248;57.652;11.908;2023-05-19T08:47:59;1.70;;;0.98;;
26612;SDS011;14248;57.652;11.908;2023-05-19T08:50:28;2.90;;;1.20;;
26612;SDS011;14248;57.652;11.908;2023-05-19T08:52:55;2.20;;;1.30;;
26612;SDS011;14248;57.652;11.908;2023-05-19T08:57:51;2.63;;;1.20;;
26612;SDS011;14248;57.652;11.908;2023-05-19T09:00:18;1.83;;;1.20;;
26612;SDS011;14248;57.652;11.908;2023-05-19T09:02:44;1.73;;;1.00;;
26612;SDS011;14248;57.652;11.908;2023-05-19T09:05:12;2.92;;;0.98;;
26612;SDS011;14248;57.652;11.908;2023-05-19T09:07:39;3.17;;;1.15;;
26612;SDS011;14248;57.652;11.908;2023-05-19T09:10:07;1.85;;;1.10;;
26612;SDS011;14248;57.652;11.908;2023-05-19T09:12:33;4.40;;;1.30;;
26612;SDS011;14248;57.652;11.908;2023-05-19T09:14:59;2.47;;;1.30;;
26612;SDS011;14248;57.652;11.908;2023-05-19T09:17:26;4.32;;;1.50;;
26612;SDS011;14248;57.652;11.908;2023-05-19T09:19:52;2.90;;;1.20;;
26612;SDS011;14248;57.652;11.908;2023-05-19T09:22:18;2.22;;;1.20;;
26612;SDS011;14248;57.652;11.908;2023-05-19T09:24:44;2.42;;;1.08;;
26612;SDS011;14248;57.652;11.908;2023-05-19T09:27:20;2.92;;;1.20;;
26612;SDS011;14248;57.652;11.908;2023-05-19T09:29:47;2.95;;;1.38;;
26612;SDS011;14248;57.652;11.908;2023-05-19T09:32:22;3.05;;;1.05;;
26612;SDS011;14248;57.652;11.908;2023-05-19T09:37:15;3.55;;;1.50;;
26612;SDS011;14248;57.652;11.908;2023-05-19T09:39:41;2.90;;;1.70;;
26612;SDS011;14248;57.652;11.908;2023-05-19T09:42:13;3.97;;;1.40;;
26612;SDS011;14248;57.652;11.908;2023-05-19T09:44:40;6.35;;;1.95;;
26612;SDS011;14248;57.652;11.908;2023-05-19T09:47:06;4.05;;;1.52;;
26612;SDS011;14248;57.652;11.908;2023-05-19T09:49:33;4.15;;;1.70;;
26612;SDS011;14248;57.652;11.908;2023-05-19T09:52:03;4.18;;;1.95;;
26612;SDS011;14248;57.652;11.908;2023-05-19T09:54:29;4.07;;;2.10;;
26612;SDS011;14248;57.652;11.908;2023-05-19T09:57:01;4.43;;;1.60;;
26612;SDS011;14248;57.652;11.908;2023-05-19T09:59:28;5.20;;;2.55;;
26612;SDS011;14248;57.652;11.908;2023-05-19T10:01:54;4.22;;;1.90;;
26612;SDS011;14248;57.652;11.908;2023-05-19T10:04:21;4.45;;;2.00;;
26612;SDS011;14248;57.652;11.908;2023-05-19T10:06:50;1.98;;;1.65;;
26612;SDS011;14248;57.652;11.908;2023-05-19T10:09:23;3.00;;;1.48;;
26612;SDS011;14248;57.652;11.908;2023-05-19T10:11:52;3.38;;;1.77;;
26612;SDS011;14248;57.652;11.908;2023-05-19T10:14:22;5.55;;;1.80;;
26612;SDS011;14248;57.652;11.908;2023-05-19T10:16:52;4.03;;;1.88;;
26612;SDS011;14248;57.652;11.908;2023-05-19T10:19:19;4.22;;;2.05;;
26612;SDS011;14248;57.652;11.908;2023-05-19T10:21:46;3.67;;;2.00;;
26612;SDS011;14248;57.652;11.908;2023-05-19T10:24:12;3.13;;;1.80;;
26612;SDS011;14248;57.652;11.908;2023-05-19T10:26:39;5.28;;;2.22;;
26612;SDS011;14248;57.652;11.908;2023-05-19T10:29:06;5.75;;;2.28;;
26612;SDS011;14248;57.652;11.908;2023-05-19T10:31:32;4.25;;;2.28;;
26612;SDS011;14248;57.652;11.908;2023-05-19T10:36:44;4.63;;;1.90;;
26612;SDS011;14248;57.652;11.908;2023-05-19T10:39:24;4.28;;;1.50;;
26612;SDS011;14248;57.652;11.908;2023-05-19T10:42:12;2.72;;;1.55;;
26612;SDS011;14248;57.652;11.908;2023-05-19T10:47:26;1.13;;;1.02;;
26612;SDS011;14248;57.652;11.908;2023-05-19T10:49:54;1.48;;;1.08;;
26612;SDS011;14248;57.652;11.908;2023-05-19T10:52:21;1.75;;;1.00;;
26612;SDS011;14248;57.652;11.908;2023-05-19T10:54:49;3.30;;;1.30;;
26612;SDS011;14248;57.652;11.908;2023-05-19T10:57:18;1.42;;;0.98;;
26612;SDS011;14248;57.652;11.908;2023-05-19T10:59:45;2.25;;;1.25;;
26612;SDS011;14248;57.652;11.908;2023-05-19T11:02:35;1.17;;;0.90;;
26612;SDS011;14248;57.652;11.908;2023-05-19T11:04:58;3.75;;;1.10;;
26612;SDS011;14248;57.652;11.908;2023-05-19T11:07:32;3.72;;;0.80;;
26612;SDS011;14248;57.652;11.908;2023-05-19T11:09:58;2.92;;;1.30;;
26612;SDS011;14248;57.652;11.908;2023-05-19T11:12:24;3.67;;;1.55;;
26612;SDS011;14248;57.652;11.908;2023-05-19T11:14:53;1.33;;;1.10;;
26612;SDS011;14248;57.652;11.908;2023-05-19T11:17:20;3.10;;;1.40;;
26612;SDS011;14248;57.652;11.908;2023-05-19T11:19:51;2.10;;;1.45;;
26612;SDS011;14248;57.652;11.908;2023-05-19T11:22:17;2.97;;;1.15;;
26612;SDS011;14248;57.652;11.908;2023-05-19T11:24:47;2.05;;;1.20;;
26612;SDS011;14248;57.652;11.908;2023-05-19T11:27:18;2.65;;;1.33;;
26612;SDS011;14248;57.652;11.908;2023-05-19T11:29:45;3.08;;;1.70;;
26612;SDS011;14248;57.652;11.908;2023-05-19T11:32:12;2.72;;;1.20;;
26612;SDS011;14248;57.652;11.908;2023-05-19T11:34:39;3.00;;;1.73;;
26612;SDS011;14248;57.652;11.908;2023-05-19T11:37:06;6.00;;;1.63;;
26612;SDS011;14248;57.652;11.908;2023-05-19T11:39:33;2.75;;;1.30;;
26612;SDS011;14248;57.652;11.908;2023-05-19T11:41:59;2.20;;;1.27;;
26612;SDS011;14248;57.652;11.908;2023-05-19T11:44:26;2.40;;;1.15;;
26612;SDS011;14248;57.652;11.908;2023-05-19T11:46:52;4.75;;;1.52;;
26612;SDS011;14248;57.652;11.908;2023-05-19T11:49:18;3.20;;;1.92;;
26612;SDS011;14248;57.652;11.908;2023-05-19T11:51:44;4.00;;;1.75;;
26612;SDS011;14248;57.652;11.908;2023-05-19T11:54:11;1.77;;;1.20;;
26612;SDS011;14248;57.652;11.908;2023-05-19T11:56:41;3.28;;;1.60;;
26612;SDS011;14248;57.652;11.908;2023-05-19T11:59:07;2.35;;;1.80;;
26612;SDS011;14248;57.652;11.908;2023-05-19T12:01:34;3.38;;;1.48;;
26612;SDS011;14248;57.652;11.908;2023-05-19T12:04:06;5.03;;;1.88;;
26612;SDS011;14248;57.652;11.908;2023-05-19T12:06:34;3.08;;;1.50;;
26612;SDS011;14248;57.652;11.908;2023-05-19T12:09:00;2.42;;;1.33;;
26612;SDS011;14248;57.652;11.908;2023-05-19T12:11:29;4.97;;;1.67;;
26612;SDS011;14248;57.652;11.908;2023-05-19T12:13:59;2.40;;;1.40;;
26612;SDS011;14248;57.652;11.908;2023-05-19T12:16:32;3.60;;;1.42;;
26612;SDS011;14248;57.652;11.908;2023-05-19T12:18:58;2.13;;;1.50;;
26612;SDS011;14248;57.652;11.908;2023-05-19T12:21:24;2.10;;;1.08;;
26612;SDS011;14248;57.652;11.908;2023-05-19T12:23:51;1.38;;;1.17;;
26612;SDS011;14248;57.652;11.908;2023-05-19T12:26:17;1.65;;;0.98;;
26612;SDS011;14248;57.652;11.908;2023-05-19T12:28:44;1.83;;;1.10;;
26612;SDS011;14248;57.652;11.908;2023-05-19T12:31:10;1.15;;;0.80;;
26612;SDS011;14248;57.652;11.908;2023-05-19T12:33:36;1.35;;;0.80;;
26612;SDS011;14248;57.652;11.908;2023-05-19T12:36:02;2.00;;;0.82;;
26612;SDS011;14248;57.652;11.908;2023-05-19T12:38:28;1.58;;;0.90;;
26612;SDS011;14248;57.652;11.908;2023-05-19T12:40:56;1.33;;;0.70;;
26612;SDS011;14248;57.652;11.908;2023-05-19T12:43:23;0.80;;;0.75;;
26612;SDS011;14248;57.652;11.908;2023-05-19T12:45:49;1.17;;;0.80;;
26612;SDS011;14248;57.652;11.908;2023-05-19T12:48:16;0.80;;;0.70;;
26612;SDS011;14248;57.652;11.908;2023-05-19T12:50:42;1.20;;;0.90;;
26612;SDS011;14248;57.652;11.908;2023-05-19T12:53:11;0.75;;;0.70;;
26612;SDS011;14248;57.652;11.908;2023-05-19T12:55:41;0.70;;;0.70;;
26612;SDS011;14248;57.652;11.908;2023-05-19T12:58:08;1.17;;;0.80;;
26612;SDS011;14248;57.652;11.908;2023-05-19T13:00:39;1.58;;;0.82;;
26612;SDS011;14248;57.652;11.908;2023-05-19T13:03:07;2.60;;;0.77;;
26612;SDS011;14248;57.652;11.908;2023-05-19T13:05:40;0.77;;;0.70;;
26612;SDS011;14248;57.652;11.908;2023-05-19T13:10:35;1.70;;;0.80;;
26612;SDS011;14248;57.652;11.908;2023-05-19T13:13:04;1.67;;;0.80;;
26612;SDS011;14248;57.652;11.908;2023-05-19T13:15:31;0.88;;;0.82;;
26612;SDS011;14248;57.652;11.908;2023-05-19T13:17:58;2.00;;;1.00;;
26612;SDS011;14248;57.652;11.908;2023-05-19T13:20:25;1.38;;;1.02;;
26612;SDS011;14248;57.652;11.908;2023-05-19T13:22:52;1.75;;;1.00;;
26612;SDS011;14248;57.652;11.908;2023-05-19T13:25:18;2.70;;;1.20;;
26612;SDS011;14248;57.652;11.908;2023-05-19T13:27:45;2.30;;;1.17;;
26612;SDS011;14248;57.652;11.908;2023-05-19T13:30:12;1.77;;;1.10;;
26612;SDS011;14248;57.652;11.908;2023-05-19T13:32:38;1.23;;;0.90;;
26612;SDS011;14248;57.652;11.908;2023-05-19T13:35:04;1.25;;;1.10;;
26612;SDS011;14248;57.652;11.908;2023-05-19T13:37:30;2.33;;;1.05;;
26612;SDS011;14248;57.652;11.908;2023-05-19T13:39:59;1.70;;;0.77;;
26612;SDS011;14248;57.652;11.908;2023-05-19T13:42:24;1.02;;;0.90;;
26612;SDS011;14248;57.652;11.908;2023-05-19T13:44:54;1.10;;;0.82;;
26612;SDS011;14248;57.652;11.908;2023-05-19T13:47:21;3.17;;;0.88;;
26612;SDS011;14248;57.652;11.908;2023-05-19T13:49:47;1.33;;;1.00;;
26612;SDS011;14248;57.652;11.908;2023-05-19T13:52:13;0.90;;;0.90;;
26612;SDS011;14248;57.652;11.908;2023-05-19T13:54:39;1.15;;;0.90;;
26612;SDS011;14248;57.652;11.908;2023-05-19T13:57:06;0.80;;;0.80;;
26612;SDS011;14248;57.652;11.908;2023-05-19T13:59:32;0.95;;;0.82;;
26612;SDS011;14248;57.652;11.908;2023-05-19T14:01:59;0.90;;;0.90;;
26612;SDS011;14248;57.652;11.908;2023-05-19T14:04:26;1.70;;;0.80;;
26612;SDS011;14248;57.652;11.908;2023-05-19T14:06:53;0.60;;;0.60;;
26612;SDS011;14248;57.652;11.908;2023-05-19T14:09:19;0.98;;;0.70;;
26612;SDS011;14248;57.652;11.908;2023-05-19T14:11:46;0.75;;;0.75;;
26612;SDS011;14248;57.652;11.908;2023-05-19T14:14:12;1.02;;;0.73;;
26612;SDS011;14248;57.652;11.908;2023-05-19T14:16:39;1.17;;;0.73;;
26612;SDS011;14248;57.652;11.908;2023-05-19T14:19:05;1.02;;;0.73;;
26612;SDS011;14248;57.652;11.908;2023-05-19T14:21:31;1.35;;;0.82;;
26612;SDS011;14248;57.652;11.908;2023-05-19T14:23:57;1.38;;;0.85;;
26612;SDS011;14248;57.652;11.908;2023-05-19T14:26:23;0.73;;;0.70;;
26612;SDS011;14248;57.652;11.908;2023-05-19T14:28:50;0.90;;;0.82;;
26612;SDS011;14248;57.652;11.908;2023-05-19T14:31:16;1.08;;;0.50;;
26612;SDS011;14248;57.652;11.908;2023-05-19T14:33:41;1.08;;;0.80;;
26612;SDS011;14248;57.652;11.908;2023-05-19T14:36:08;1.23;;;1.00;;
26612;SDS011;14248;57.652;11.908;2023-05-19T14:38:34;2.60;;;1.38;;
26612;SDS011;14248;57.652;11.908;2023-05-19T14:41:00;1.02;;;0.95;;
26612;SDS011;14248;57.652;11.908;2023-05-19T14:43:26;2.75;;;1.52;;
26612;SDS011;14248;57.652;11.908;2023-05-19T14:45:52;1.63;;;1.02;;
26612;SDS011;14248;57.652;11.908;2023-05-19T14:48:18;1.60;;;1.40;;
26612;SDS011;14248;57.652;11.908;2023-05-19T14:50:45;1.70;;;1.23;;
26612;SDS011;14248;57.652;11.908;2023-05-19T14:53:12;1.98;;;1.40;;
26612;SDS011;14248;57.652;11.908;2023-05-19T14:55:38;1.38;;;1.10;;
26612;SDS011;14248;57.652;11.908;2023-05-19T14:58:05;1.75;;;1.15;;
26612;SDS011;14248;57.652;11.908;2023-05-19T15:00:31;1.27;;;1.10;;
26612;SDS011;14248;57.652;11.908;2023-05-19T15:02:57;1.30;;;1.20;;
26612;SDS011;14248;57.652;11.908;2023-05-19T15:05:22;1.20;;;1.10;;
26612;SDS011;14248;57.652;11.908;2023-05-19T15:07:49;1.63;;;1.30;;
26612;SDS011;14248;57.652;11.908;2023-05-19T15:10:15;1.45;;;1.25;;
26612;SDS011;14248;57.652;11.908;2023-05-19T15:12:41;1.88;;;1.38;;
26612;SDS011;14248;57.652;11.908;2023-05-19T15:15:07;3.15;;;2.05;;
26612;SDS011;14248;57.652;11.908;2023-05-19T15:17:34;1.75;;;1.27;;
26612;SDS011;14248;57.652;11.908;2023-05-19T15:20:00;1.30;;;1.20;;
26612;SDS011;14248;57.652;11.908;2023-05-19T15:22:26;2.25;;;1.20;;
26612;SDS011;14248;57.652;11.908;2023-05-19T15:24:52;1.52;;;1.27;;
26612;SDS011;14248;57.652;11.908;2023-05-19T15:27:18;4.57;;;1.50;;
26612;SDS011;14248;57.652;11.908;2023-05-19T15:29:45;1.48;;;1.38;;
26612;SDS011;14248;57.652;11.908;2023-05-19T15:32:10;2.17;;;1.27;;
26612;SDS011;14248;57.652;11.908;2023-05-19T15:34:36;1.20;;;1.10;;
26612;SDS011;14248;57.652;11.908;2023-05-19T15:37:02;1.92;;;1.60;;
26612;SDS011;14248;57.652;11.908;2023-05-19T15:39:28;1.58;;;1.42;;
26612;SDS011;14248;57.652;11.908;2023-05-19T15:41:55;1.65;;;1.38;;
26612;SDS011;14248;57.652;11.908;2023-05-19T15:44:21;1.92;;;1.70;;
26612;SDS011;14248;57.652;11.908;2023-05-19T15:46:47;2.83;;;1.55;;
26612;SDS011;14248;57.652;11.908;2023-05-19T15:49:13;3.10;;;1.70;;
26612;SDS011;14248;57.652;11.908;2023-05-19T15:51:40;2.53;;;1.80;;
26612;SDS011;14248;57.652;11.908;2023-05-19T15:54:06;2.15;;;1.60;;
26612;SDS011;14248;57.652;11.908;2023-05-19T15:56:32;2.38;;;1.80;;
26612;SDS011;14248;57.652;11.908;2023-05-19T15:58:57;1.77;;;1.60;;
26612;SDS011;14248;57.652;11.908;2023-05-19T16:01:23;1.70;;;1.52;;
26612;SDS011;14248;57.652;11.908;2023-05-19T16:03:50;3.33;;;1.75;;
26612;SDS011;14248;57.652;11.908;2023-05-19T16:06:15;2.17;;;1.60;;
26612;SDS011;14248;57.652;11.908;2023-05-19T16:08:41;2.28;;;1.90;;
26612;SDS011;14248;57.652;11.908;2023-05-19T16:11:07;1.90;;;1.45;;
26612;SDS011;14248;57.652;11.908;2023-05-19T16:13:33;1.70;;;1.40;;
26612;SDS011;14248;57.652;11.908;2023-05-19T16:15:59;3.70;;;1.90;;
26612;SDS011;14248;57.652;11.908;2023-05-19T16:18:25;1.80;;;1.48;;
26612;SDS011;14248;57.652;11.908;2023-05-19T16:20:54;2.55;;;1.70;;
26612;SDS011;14248;57.652;11.908;2023-05-19T16:23:20;2.65;;;1.70;;
26612;SDS011;14248;57.652;11.908;2023-05-19T16:25:46;1.65;;;1.55;;
26612;SDS011;14248;57.652;11.908;2023-05-19T16:28:12;2.28;;;1.50;;
26612;SDS011;14248;57.652;11.908;2023-05-19T16:30:38;1.40;;;1.30;;
26612;SDS011;14248;57.652;11.908;2023-05-19T16:33:04;2.60;;;1.98;;
26612;SDS011;14248;57.652;11.908;2023-05-19T16:35:30;2.50;;;1.63;;
26612;SDS011;14248;57.652;11.908;2023-05-19T16:37:56;2.38;;;1.77;;
26612;SDS011;14248;57.652;11.908;2023-05-19T16:40:22;2.42;;;1.77;;